Terminal Aerodrome Forecast
Issued by NWS Wilmington, NC

Home | Current Version | Previous Version | Text Only | Print | Product List | Glossary On
Versions: 1 2 3 4 5 6 7 8 9 10 11 12 13 14 15 16 17 18
000
FTUS42 KILM 230540
TAFFLO
TAF
KFLO 230540Z 2306/2406 00000KT 6SM BR SKC
      TEMPO 2308/2312 00000KT 3SM BR
     FM231300 05006KT P6SM FEW050
     FM232000 06006KT P6SM FEW200=

USA.gov is the U.S. government's official web portal to all federal, state and local government web resources and services.